Time;durP1;ratioP1;P1;durP2;ratioP2;P2;SDS_P1;SDS_P2;PMS_P1;PMS_P2;Temp;Humidity;BMP_temperature;BMP_pressure;BME280_temperature;BME280_humidity;BME280_pressure;Samples;Min_cycle;Max_cycle;Signal;HPM_P1;HPM_P2
2022/04/17 00:02:22;;;;;;;18.98;12.05;;;9.90;99.90;;;;;;5056350;28;20051;-65
2022/04/17 00:04:48;;;;;;;17.50;12.38;;;10.00;99.90;;;;;;5056225;28;20053;-66
2022/04/17 00:07:13;;;;;;;20.48;11.98;;;9.90;99.90;;;;;;5056244;28;20036;-65
2022/04/17 00:09:39;;;;;;;19.08;13.00;;;9.80;99.90;;;;;;5056181;28;20548;-67
2022/04/17 00:12:05;;;;;;;20.75;12.05;;;9.90;99.90;;;;;;5056357;28;20056;-65
2022/04/17 00:14:31;;;;;;;20.48;13.43;;;9.90;99.90;;;;;;5056246;28;20017;-66
2022/04/17 00:16:57;;;;;;;19.85;12.98;;;9.90;99.90;;;;;;5055942;28;20032;-66
2022/04/17 00:19:23;;;;;;;22.52;14.13;;;9.90;99.90;;;;;;5038099;28;20541;-67
2022/04/17 00:21:49;;;;;;;20.23;12.70;;;9.90;99.90;;;;;;5055933;28;20025;-66
2022/04/17 00:24:15;;;;;;;20.30;12.82;;;9.90;99.90;;;;;;5055706;28;20116;-66
2022/04/17 00:26:41;;;;;;;21.23;13.60;;;9.80;99.90;;;;;;5056193;28;20043;-67
2022/04/17 00:29:07;;;;;;;22.17;14.50;;;9.90;99.90;;;;;;5055785;28;20025;-66
2022/04/17 00:31:33;;;;;;;21.67;13.88;;;9.80;99.90;;;;;;5055725;28;20029;-66
2022/04/17 00:33:59;;;;;;;19.25;12.77;;;9.60;99.90;;;;;;5055697;28;20025;-66
2022/04/17 00:36:24;;;;;;;19.48;13.27;;;9.50;99.90;;;;;;5055701;28;20029;-67
2022/04/17 00:38:50;;;;;;;20.83;13.30;;;9.40;99.90;;;;;;5055798;28;20514;-67
2022/04/17 00:41:15;;;;;;;19.83;12.55;;;9.30;99.90;;;;;;5055580;28;20066;-66
2022/04/17 00:43:46;;;;;;;21.52;13.25;;;9.20;99.90;;;;;;5055714;28;20101;-66
2022/04/17 00:46:12;;;;;;;23.08;13.45;;;9.10;99.90;;;;;;5055482;28;20031;-65
2022/04/17 00:48:37;;;;;;;22.23;13.55;;;9.00;99.90;;;;;;5055949;28;20025;-66
2022/04/17 00:51:04;;;;;;;21.13;12.52;;;9.00;99.90;;;;;;5055658;28;20025;-66
2022/04/17 00:53:30;;;;;;;19.17;11.63;;;9.10;99.90;;;;;;5055288;28;20106;-66
2022/04/17 00:55:56;;;;;;;18.13;11.52;;;9.10;99.90;;;;;;5055273;28;20072;-66
2022/04/17 00:58:23;;;;;;;19.83;12.35;;;9.10;99.90;;;;;;5055162;28;20572;-65
2022/04/17 01:00:49;;;;;;;18.65;12.73;;;9.10;99.90;;;;;;5055199;28;20103;-67
2022/04/17 01:03:17;;;;;;;16.58;11.15;;;9.00;99.90;;;;;;5055420;28;20122;-65
2022/04/17 01:05:44;;;;;;;18.25;11.73;;;9.10;99.90;;;;;;5055364;28;20387;-66
2022/04/17 01:08:10;;;;;;;19.25;12.25;;;9.10;99.90;;;;;;5055346;28;20021;-67
2022/04/17 01:10:37;;;;;;;16.48;11.25;;;9.00;99.90;;;;;;5037130;28;20128;-65
2022/04/17 01:13:03;;;;;;;15.73;11.32;;;8.80;99.90;;;;;;5054953;28;20039;-66
2022/04/17 01:15:29;;;;;;;18.90;11.95;;;8.60;99.90;;;;;;5055001;28;20391;-65
2022/04/17 01:17:55;;;;;;;16.48;11.10;;;8.60;99.90;;;;;;5054760;28;20437;-65
2022/04/17 01:20:24;;;;;;;17.67;12.25;;;8.70;99.90;;;;;;5055111;28;20029;-66
2022/04/17 01:22:51;;;;;;;20.05;11.50;;;8.70;99.90;;;;;;5054764;28;20071;-66
2022/04/17 01:28:01;;;;;;;16.95;10.40;;;8.90;99.90;;;;;;5054760;28;20066;-67
2022/04/17 01:30:27;;;;;;;20.02;11.90;;;8.70;99.90;;;;;;5054661;28;20083;-66
2022/04/17 01:32:53;;;;;;;20.38;11.27;;;8.60;99.90;;;;;;5055106;28;20028;-67
2022/04/17 01:35:19;;;;;;;19.23;11.40;;;8.60;99.90;;;;;;5054563;28;20025;-66
2022/04/17 01:37:50;;;;;;;15.95;10.88;;;8.70;99.90;;;;;;5054449;28;20021;-65
2022/04/17 01:40:16;;;;;;;16.88;11.52;;;8.70;99.90;;;;;;5054699;28;20475;-66
2022/04/17 01:42:42;;;;;;;17.08;10.98;;;8.70;99.90;;;;;;5054667;28;20036;-66
2022/04/17 01:45:10;;;;;;;19.33;13.18;;;8.60;99.90;;;;;;5054406;28;20025;-66
2022/04/17 01:47:35;;;;;;;17.70;12.20;;;8.60;99.90;;;;;;5054558;28;20475;-66
2022/04/17 01:50:01;;;;;;;21.23;11.93;;;8.60;99.90;;;;;;5054541;28;20032;-65
2022/04/17 01:52:27;;;;;;;19.60;12.07;;;8.50;99.90;;;;;;5054755;28;20025;-65
2022/04/17 01:54:53;;;;;;;17.30;11.10;;;8.50;99.90;;;;;;5053444;28;20025;-67
2022/04/17 01:57:18;;;;;;;18.80;12.55;;;8.40;99.90;;;;;;5054078;28;20029;-66
2022/04/17 01:59:44;;;;;;;21.95;13.50;;;8.40;99.90;;;;;;5054378;28;20017;-66
2022/04/17 02:02:09;;;;;;;17.90;11.98;;;8.40;99.90;;;;;;5054335;28;20021;-66
2022/04/17 02:04:36;;;;;;;18.55;11.60;;;8.40;99.90;;;;;;5054279;28;20033;-65
2022/04/17 02:07:05;;;;;;;18.90;12.07;;;8.30;99.90;;;;;;5053944;28;20494;-67
2022/04/17 02:09:31;;;;;;;17.70;12.43;;;8.30;99.90;;;;;;5054130;28;20029;-66
2022/04/17 02:11:56;;;;;;;19.63;11.70;;;8.30;99.90;;;;;;5054115;28;20467;-65
2022/04/17 02:14:22;;;;;;;19.05;12.10;;;8.30;99.90;;;;;;5053682;28;20479;-66
2022/04/17 02:16:48;;;;;;;17.42;11.32;;;8.20;99.90;;;;;;5053704;28;20569;-66
2022/04/17 02:19:14;;;;;;;18.10;12.13;;;8.10;99.90;;;;;;5053738;28;20025;-67
2022/04/17 02:21:40;;;;;;;19.85;11.32;;;8.00;99.90;;;;;;5053638;28;20411;-66
2022/04/17 02:24:06;;;;;;;18.67;11.52;;;8.00;99.90;;;;;;5053466;28;20026;-65
2022/04/17 02:26:32;;;;;;;17.33;11.05;;;8.00;99.90;;;;;;5053618;28;20585;-65
2022/04/17 02:29:00;;;;;;;19.45;11.75;;;7.90;99.90;;;;;;5053590;28;20387;-65
2022/04/17 02:31:27;;;;;;;18.42;11.60;;;8.00;99.90;;;;;;5053539;28;20029;-67
2022/04/17 02:33:53;;;;;;;18.50;11.25;;;8.00;99.90;;;;;;5053489;28;20514;-66
2022/04/17 02:36:19;;;;;;;19.10;12.40;;;8.00;99.90;;;;;;5053699;28;20021;-66
2022/04/17 02:38:45;;;;;;;19.58;11.52;;;8.00;99.90;;;;;;5053322;28;20044;-65
2022/04/17 02:41:11;;;;;;;18.58;11.98;;;8.00;99.90;;;;;;5053332;28;20391;-66
2022/04/17 02:43:37;;;;;;;21.33;12.82;;;8.00;99.90;;;;;;5053628;28;20037;-66
2022/04/17 02:46:03;;;;;;;23.17;12.98;;;8.00;99.90;;;;;;5053249;28;20025;-66
2022/04/17 02:48:28;;;;;;;20.00;12.88;;;7.90;99.90;;;;;;5053189;28;20108;-66
2022/04/17 02:50:55;;;;;;;20.52;12.73;;;8.00;99.90;;;;;;5053524;28;20029;-66
2022/04/17 02:53:21;;;;;;;24.98;13.43;;;7.90;99.90;;;;;;5053476;28;20028;-66
2022/04/17 02:55:47;;;;;;;18.75;11.45;;;7.90;99.90;;;;;;5053432;28;20021;-65
2022/04/17 02:58:14;;;;;;;21.25;11.52;;;7.90;99.90;;;;;;5053568;28;20040;-65
2022/04/17 03:05:36;;;;;;;19.35;10.80;;;7.90;99.90;;;;;;5053378;28;20017;-65
2022/04/17 03:06:11;;;;;;;19.85;11.93;;;7.70;99.90;;;;;;5052738;28;20407;-68
2022/04/17 03:08:41;;;;;;;19.02;12.30;;;7.70;99.90;;;;;;5052970;28;20445;-68
2022/04/17 03:11:08;;;;;;;20.23;12.18;;;7.60;99.90;;;;;;5053567;28;20495;-68
2022/04/17 03:13:34;;;;;;;19.08;11.95;;;7.60;99.90;;;;;;5053041;28;20033;-67
2022/04/17 03:16:00;;;;;;;18.63;11.80;;;7.50;99.90;;;;;;5052990;28;20031;-69
2022/04/17 03:18:26;;;;;;;19.17;11.57;;;7.50;99.90;;;;;;5052837;28;20055;-67
2022/04/17 03:20:51;;;;;;;16.73;10.55;;;7.60;99.90;;;;;;5053430;28;20189;-65
2022/04/17 03:23:17;;;;;;;16.80;10.88;;;7.70;99.90;;;;;;5053172;28;20059;-65
2022/04/17 03:25:44;;;;;;;19.65;11.77;;;7.60;99.90;;;;;;5052686;28;20074;-67
2022/04/17 03:28:09;;;;;;;25.08;12.07;;;7.60;99.90;;;;;;5053161;28;20032;-65
2022/04/17 03:30:35;;;;;;;20.70;12.63;;;7.60;99.90;;;;;;5053395;28;20021;-66
2022/04/17 03:33:02;;;;;;;18.90;12.90;;;7.60;99.90;;;;;;5052848;28;20033;-65
2022/04/17 03:35:30;;;;;;;22.83;12.50;;;7.60;99.90;;;;;;5052771;28;20080;-66
2022/04/17 03:37:57;;;;;;;20.50;12.32;;;7.60;99.90;;;;;;5052718;28;20025;-66
2022/04/17 03:40:22;;;;;;;19.25;12.43;;;7.50;99.90;;;;;;5053048;28;20025;-66
2022/04/17 03:42:48;;;;;;;19.85;12.18;;;7.50;99.90;;;;;;5052739;28;20024;-65
2022/04/17 03:45:17;;;;;;;19.60;11.85;;;7.40;99.90;;;;;;5053239;28;20021;-66
2022/04/17 03:47:43;;;;;;;18.50;11.77;;;7.30;99.90;;;;;;5053218;28;20029;-65
2022/04/17 03:50:09;;;;;;;22.10;12.43;;;7.30;99.90;;;;;;5052911;28;20021;-67
2022/04/17 03:52:44;;;;;;;18.75;11.48;;;7.30;99.90;;;;;;5052638;28;20025;-66
2022/04/17 03:55:11;;;;;;;15.35;10.43;;;7.20;99.90;;;;;;5052908;28;20025;-65
2022/04/17 03:57:38;;;;;;;16.42;10.57;;;7.10;99.90;;;;;;5052781;28;20082;-65
2022/04/17 04:00:06;;;;;;;15.98;9.77;;;7.10;99.90;;;;;;5052565;28;20021;-65
2022/04/17 04:02:31;;;;;;;15.70;9.90;;;7.10;99.90;;;;;;5052524;28;20045;-66
2022/04/17 04:04:57;;;;;;;16.05;9.57;;;7.00;99.90;;;;;;5052783;28;20052;-65
2022/04/17 04:07:24;;;;;;;18.00;10.93;;;7.00;99.90;;;;;;5052750;28;20398;-65
2022/04/17 04:09:49;;;;;;;16.60;10.27;;;7.00;99.90;;;;;;5052491;28;20017;-65
2022/04/17 04:12:15;;;;;;;16.00;9.63;;;7.00;99.90;;;;;;5052414;28;20032;-65
2022/04/17 04:14:41;;;;;;;17.73;10.10;;;7.00;99.90;;;;;;5052604;28;20025;-66
2022/04/17 04:17:06;;;;;;;15.80;10.20;;;6.90;99.90;;;;;;5052334;28;20112;-66
2022/04/17 04:19:32;;;;;;;17.50;10.27;;;6.80;99.90;;;;;;5055587;28;20021;-65
2022/04/17 04:21:58;;;;;;;17.42;10.85;;;6.70;99.90;;;;;;5055764;28;20025;-65
2022/04/17 04:24:24;;;;;;;18.58;11.13;;;6.70;99.90;;;;;;5055949;28;20124;-67
2022/04/17 04:29:35;;;;;;;15.90;10.73;;;6.80;99.90;;;;;;5056160;28;20462;-67
2022/04/17 04:32:01;;;;;;;18.98;11.45;;;6.80;99.90;;;;;;5056005;28;20029;-64
2022/04/17 04:34:26;;;;;;;18.20;10.75;;;6.80;99.90;;;;;;5056028;28;20040;-65
2022/04/17 04:36:52;;;;;;;16.85;9.98;;;6.80;99.90;;;;;;5055694;28;20064;-66
2022/04/17 04:39:17;;;;;;;16.35;10.25;;;6.80;99.90;;;;;;5055539;28;20502;-65
2022/04/17 04:41:44;;;;;;;16.35;10.50;;;6.70;99.90;;;;;;5055850;28;20029;-66
2022/04/17 04:44:10;;;;;;;20.65;9.93;;;6.60;99.90;;;;;;5055820;28;20024;-66
2022/04/17 04:46:35;;;;;;;15.95;9.93;;;6.70;99.90;;;;;;5055755;28;20025;-66
2022/04/17 04:51:45;;;;;;;18.27;10.75;;;6.70;99.90;;;;;;5055450;28;20513;-65
2022/04/17 04:54:11;;;;;;;16.33;10.25;;;6.80;99.90;;;;;;5055350;28;20025;-65
2022/04/17 04:56:36;;;;;;;19.85;11.38;;;6.70;99.90;;;;;;5037476;28;20072;-66
2022/04/17 04:59:04;;;;;;;18.58;11.88;;;6.70;99.90;;;;;;5055167;28;20025;-66
2022/04/17 05:01:29;;;;;;;17.13;10.13;;;6.70;99.90;;;;;;5055238;28;20067;-67
2022/04/17 05:03:55;;;;;;;16.67;10.55;;;6.70;99.90;;;;;;5055207;28;20021;-66
2022/04/17 05:06:21;;;;;;;17.45;10.18;;;6.70;99.90;;;;;;5055139;28;20471;-66
2022/04/17 05:08:46;;;;;;;17.63;10.57;;;6.60;99.90;;;;;;5055070;28;20027;-66
2022/04/17 05:11:12;;;;;;;16.10;8.95;;;6.60;99.90;;;;;;5055282;28;20033;-66
2022/04/17 05:13:38;;;;;;;17.08;10.00;;;6.60;99.90;;;;;;5055005;28;20056;-65
2022/04/17 05:16:05;;;;;;;20.08;12.32;;;6.60;99.90;;;;;;5054859;28;20021;-66
2022/04/17 05:18:31;;;;;;;19.08;12.07;;;6.60;99.90;;;;;;5055073;28;20029;-65
2022/04/17 05:20:57;;;;;;;17.38;10.43;;;6.60;99.90;;;;;;5054891;28;20021;-67
2022/04/17 05:23:26;;;;;;;17.73;10.73;;;6.60;99.90;;;;;;5055097;28;20025;-65
2022/04/17 05:25:54;;;;;;;15.73;10.05;;;6.60;99.90;;;;;;5054441;28;20481;-66
2022/04/17 05:28:21;;;;;;;15.30;9.63;;;6.70;99.90;;;;;;5055036;28;20432;-66
2022/04/17 05:30:47;;;;;;;17.25;9.68;;;6.60;99.90;;;;;;5053554;28;20025;-65
2022/04/17 05:33:13;;;;;;;14.18;9.15;;;6.60;99.90;;;;;;5054620;28;20047;-65
2022/04/17 05:35:39;;;;;;;15.15;9.48;;;6.50;99.90;;;;;;5054592;28;20166;-67
2022/04/17 05:38:05;;;;;;;14.48;9.20;;;6.60;99.90;;;;;;5054469;28;20431;-66
2022/04/17 05:40:57;;;;;;;16.83;10.48;;;6.70;99.90;;;;;;5054465;28;20029;-66
2022/04/17 05:43:23;;;;;;;13.55;8.50;;;6.90;99.90;;;;;;5051617;28;20040;-64
2022/04/17 05:45:49;;;;;;;13.85;8.25;;;6.90;99.90;;;;;;5054642;28;20021;-65
2022/04/17 05:48:15;;;;;;;13.02;8.65;;;7.00;99.90;;;;;;5054650;28;20569;-65
2022/04/17 05:50:41;;;;;;;12.82;8.65;;;7.10;99.90;;;;;;5054294;28;20502;-67
2022/04/17 05:53:08;;;;;;;18.08;9.48;;;7.10;99.90;;;;;;5054807;28;20021;-67
2022/04/17 05:55:35;;;;;;;15.20;9.50;;;7.20;99.90;;;;;;5054129;28;20079;-67
2022/04/17 05:58:01;;;;;;;16.70;9.52;;;7.10;99.90;;;;;;5054037;28;20494;-66
2022/04/17 06:00:27;;;;;;;13.30;8.30;;;7.10;99.90;;;;;;5054103;28;20029;-66
2022/04/17 06:02:53;;;;;;;13.43;8.40;;;7.30;99.90;;;;;;5054049;28;20537;-66
2022/04/17 06:05:19;;;;;;;13.38;9.00;;;7.50;99.90;;;;;;5054007;28;20494;-65
2022/04/17 06:07:44;;;;;;;12.25;7.95;;;7.60;99.90;;;;;;5053963;28;20025;-66
2022/04/17 06:10:12;;;;;;;12.43;8.15;;;7.60;99.90;;;;;;5053891;28;20033;-65
2022/04/17 06:12:38;;;;;;;12.02;7.80;;;7.70;99.90;;;;;;5054150;28;20024;-65
2022/04/17 06:15:05;;;;;;;12.90;8.38;;;7.80;99.90;;;;;;5053778;28;20539;-66
2022/04/17 06:17:42;;;;;;;12.30;8.70;;;7.90;99.90;;;;;;5053694;28;20032;-67
2022/04/17 06:20:10;;;;;;;16.58;9.07;;;8.00;99.90;;;;;;5054294;28;20075;-66
2022/04/17 06:22:37;;;;;;;14.23;9.55;;;8.20;99.90;;;;;;5054002;28;20395;-65
2022/04/17 06:25:05;;;;;;;15.38;9.15;;;8.40;99.90;;;;;;5053449;28;20072;-65
2022/04/17 06:27:46;;;;;;;13.07;8.75;;;8.60;99.90;;;;;;5053924;28;20501;-66
2022/04/17 06:30:20;;;;;;;12.82;8.43;;;9.10;99.90;;;;;;5053881;28;20048;-66
2022/04/17 06:32:46;;;;;;;14.65;8.35;;;10.40;99.90;;;;;;5053448;28;20104;-67
2022/04/17 06:35:14;;;;;;;13.82;9.23;;;11.40;99.90;;;;;;5053502;28;20399;-66
2022/04/17 06:37:49;;;;;;;13.68;8.90;;;12.30;99.90;;;;;;5053348;28;20032;-66
2022/04/17 06:40:17;;;;;;;13.60;9.40;;;12.70;99.90;;;;;;5053210;28;20028;-67
2022/04/17 06:42:44;;;;;;;13.50;9.48;;;12.90;99.90;;;;;;5053786;28;20025;-66
2022/04/17 06:45:09;;;;;;;14.55;10.23;;;13.50;99.90;;;;;;5053301;28;20368;-66
2022/04/17 06:47:35;;;;;;;16.45;11.35;;;14.10;99.90;;;;;;5053608;28;20104;-67
2022/04/17 06:50:00;;;;;;;14.30;10.05;;;14.50;99.90;;;;;;5053245;28;20044;-68
2022/04/17 06:52:26;;;;;;;14.10;9.75;;;15.20;99.90;;;;;;5053229;28;20364;-67
2022/04/17 06:54:52;;;;;;;11.88;9.18;;;15.70;99.90;;;;;;5053221;28;20029;-66
2022/04/17 06:57:17;;;;;;;13.27;9.90;;;16.50;99.90;;;;;;5053101;28;20458;-66
2022/04/17 06:59:43;;;;;;;13.57;9.25;;;17.50;99.90;;;;;;5053430;28;20075;-66
2022/04/17 07:02:08;;;;;;;12.73;9.55;;;18.80;99.90;;;;;;5053130;28;20479;-67
2022/04/17 07:04:34;;;;;;;13.30;10.98;;;19.20;99.90;;;;;;5053366;28;20083;-67
2022/04/17 07:06:59;;;;;;;13.02;8.73;;;19.50;99.90;;;;;;5053333;28;20491;-67
2022/04/17 07:09:25;;;;;;;14.43;9.90;;;19.90;99.90;;;;;;5053008;28;20039;-67
2022/04/17 07:11:51;;;;;;;13.30;10.40;;;20.50;99.70;;;;;;5053302;28;20032;-67
2022/04/17 07:14:16;;;;;;;13.02;10.23;;;21.00;98.80;;;;;;5053241;28;20427;-68
2022/04/17 07:16:43;;;;;;;11.52;10.00;;;21.20;98.00;;;;;;5053247;28;20040;-66
2022/04/17 07:19:09;;;;;;;14.85;11.30;;;21.10;97.90;;;;;;5052858;28;20086;-67
2022/04/17 07:21:34;;;;;;;12.93;10.25;;;20.10;98.90;;;;;;5052936;28;20104;-67
2022/04/17 07:24:01;;;;;;;16.13;11.43;;;20.00;99.40;;;;;;5053002;28;20017;-66
2022/04/17 07:26:28;;;;;;;15.10;10.88;;;20.80;98.50;;;;;;5053189;28;20021;-66
2022/04/17 07:28:53;;;;;;;12.00;9.93;;;20.90;98.20;;;;;;5053152;28;20078;-67
2022/04/17 07:31:19;;;;;;;13.25;10.50;;;20.90;98.10;;;;;;5053421;28;20029;-66
2022/04/17 07:33:45;;;;;;;10.90;8.30;;;21.00;97.90;;;;;;5053091;28;20025;-67
2022/04/17 07:36:11;;;;;;;9.10;7.32;;;21.80;96.00;;;;;;5053070;28;20025;-66
2022/04/17 07:38:37;;;;;;;9.18;7.07;;;22.30;94.80;;;;;;5052957;28;20151;-67
2022/04/17 07:41:03;;;;;;;9.52;7.15;;;23.00;94.00;;;;;;5053008;28;20021;-67
2022/04/17 07:43:29;;;;;;;8.10;6.45;;;23.10;92.80;;;;;;5052721;28;20498;-66
2022/04/17 07:45:54;;;;;;;6.68;5.28;;;23.40;92.20;;;;;;5052968;28;20017;-67
2022/04/17 07:48:20;;;;;;;5.90;4.20;;;25.10;86.70;;;;;;5052603;28;20079;-68
2022/04/17 07:50:46;;;;;;;6.07;4.50;;;25.60;79.30;;;;;;5052927;28;20147;-67
2022/04/17 07:53:11;;;;;;;6.28;4.18;;;26.00;77.00;;;;;;5054198;28;20075;-67
2022/04/17 07:55:37;;;;;;;7.70;4.22;;;26.10;74.10;;;;;;5056466;28;20037;-67
2022/04/17 08:00:58;;;;;;;6.45;4.50;;;28.30;68.60;;;;;;5042944;28;20029;-67
2022/04/17 08:03:34;;;;;;;5.57;4.40;;;28.20;65.90;;;;;;5056602;28;20490;-68
2022/04/17 08:06:07;;;;;;;5.75;4.68;;;29.10;63.90;;;;;;5056606;28;20024;-68
2022/04/17 08:08:34;;;;;;;8.13;4.72;;;29.30;62.00;;;;;;5056541;28;20407;-67
2022/04/17 08:11:00;;;;;;;5.43;4.38;;;29.20;61.30;;;;;;5056206;28;20497;-66
2022/04/17 08:13:26;;;;;;;5.65;4.80;;;29.50;60.30;;;;;;5056138;28;20025;-66
2022/04/17 08:15:51;;;;;;;10.80;5.28;;;29.90;59.30;;;;;;5056272;28;20023;-67
2022/04/17 08:18:17;;;;;;;6.07;4.55;;;29.60;58.50;;;;;;5056278;28;20033;-67
2022/04/17 08:20:43;;;;;;;7.80;4.70;;;29.50;58.50;;;;;;5056548;28;20029;-66
2022/04/17 08:23:09;;;;;;;6.47;4.63;;;29.60;58.30;;;;;;5055996;28;20399;-67
2022/04/17 08:25:35;;;;;;;6.07;4.78;;;29.20;57.80;;;;;;5055717;28;20048;-67
2022/04/17 08:28:02;;;;;;;5.80;4.57;;;29.80;57.20;;;;;;5055864;28;20036;-68
2022/04/17 08:30:33;;;;;;;7.30;5.10;;;30.10;56.30;;;;;;5055997;28;20048;-67
2022/04/17 08:33:00;;;;;;;6.22;4.43;;;30.30;56.20;;;;;;5056034;28;20063;-66
2022/04/17 08:35:26;;;;;;;5.88;4.43;;;29.80;55.60;;;;;;5056015;28;20422;-67
2022/04/17 08:37:52;;;;;;;6.40;4.90;;;29.00;57.30;;;;;;5055887;28;20025;-68
2022/04/17 08:40:18;;;;;;;6.28;4.93;;;28.30;57.90;;;;;;5055638;28;20029;-66
2022/04/17 08:42:44;;;;;;;5.45;4.30;;;28.40;57.30;;;;;;5055566;28;20087;-68
2022/04/17 08:45:11;;;;;;;6.28;4.60;;;28.80;56.80;;;;;;5055589;28;20048;-66
2022/04/17 08:47:38;;;;;;;6.40;4.32;;;29.30;56.70;;;;;;5055724;28;20103;-69
2022/04/17 08:50:09;;;;;;;5.43;4.43;;;29.20;56.70;;;;;;5055437;28;20053;-67
2022/04/17 08:52:35;;;;;;;6.30;4.90;;;29.60;56.00;;;;;;5055359;28;20025;-67
2022/04/17 08:55:02;;;;;;;8.25;4.72;;;30.20;54.70;;;;;;5055356;28;20071;-67
2022/04/17 08:57:28;;;;;;;6.22;4.72;;;29.80;54.10;;;;;;5055193;28;20029;-67
2022/04/17 08:59:54;;;;;;;5.97;4.40;;;29.60;54.40;;;;;;5055239;28;20032;-69
2022/04/17 09:02:20;;;;;;;5.80;4.55;;;29.70;55.00;;;;;;5055526;28;20013;-67
2022/04/17 09:04:46;;;;;;;6.32;5.05;;;29.40;54.90;;;;;;5054938;28;20118;-68
2022/04/17 09:07:13;;;;;;;6.93;5.80;;;30.10;54.10;;;;;;5055137;28;20032;-67
2022/04/17 09:09:50;;;;;;;5.60;3.78;;;31.20;53.70;;;;;;5037215;28;20394;-67
2022/04/17 09:12:24;;;;;;;4.85;4.10;;;32.00;52.10;;;;;;5054706;28;20438;-67
2022/04/17 09:14:50;;;;;;;4.97;3.90;;;31.30;51.20;;;;;;5054897;28;20033;-67
2022/04/17 09:17:17;;;;;;;6.35;4.72;;;30.70;52.00;;;;;;5054927;28;20100;-69
2022/04/17 09:19:43;;;;;;;6.00;4.40;;;31.10;52.60;;;;;;5054913;28;20021;-67
2022/04/17 09:22:09;;;;;;;6.47;4.00;;;31.30;51.80;;;;;;5055090;28;20025;-68
2022/04/17 09:24:37;;;;;;;5.18;4.07;;;31.20;50.90;;;;;;5054631;28;20041;-67
2022/04/17 09:27:04;;;;;;;7.05;3.85;;;31.30;51.60;;;;;;5055235;28;20029;-67
2022/04/17 09:29:38;;;;;;;5.68;3.80;;;31.00;50.60;;;;;;5054764;28;20040;-67
2022/04/17 09:32:11;;;;;;;6.07;4.57;;;31.40;50.10;;;;;;5054708;28;20021;-68
2022/04/17 09:34:56;;;;;;;5.30;3.30;;;31.30;50.50;;;;;;5054864;28;20027;-69
2022/04/17 09:37:29;;;;;;;5.35;3.80;;;31.50;50.50;;;;;;5054739;28;20040;-67
2022/04/17 09:40:06;;;;;;;5.85;3.60;;;31.60;50.40;;;;;;5054798;28;20066;-68
2022/04/17 09:42:32;;;;;;;6.38;3.60;;;31.30;50.80;;;;;;5054780;28;20107;-67
2022/04/17 09:44:58;;;;;;;3.85;3.33;;;31.30;50.80;;;;;;5054378;28;20067;-68
2022/04/17 09:47:26;;;;;;;5.57;2.88;;;31.30;51.00;;;;;;5054366;28;20491;-68
2022/04/17 09:50:12;;;;;;;5.82;2.90;;;32.90;49.20;;;;;;5054339;28;20075;-67
2022/04/17 09:52:45;;;;;;;3.35;3.00;;;32.80;48.80;;;;;;5054501;28;20051;-67
2022/04/17 09:55:11;;;;;;;3.70;2.65;;;32.80;47.80;;;;;;5054220;28;20032;-67
2022/04/17 09:57:39;;;;;;;3.20;2.60;;;33.70;47.60;;;;;;5054041;28;20025;-67
2022/04/17 10:00:18;;;;;;;6.63;3.40;;;34.70;45.90;;;;;;5054070;28;20021;-68
2022/04/17 10:02:45;;;;;;;2.40;2.20;;;33.40;48.10;;;;;;5054351;28;20025;-69
2022/04/17 10:05:18;;;;;;;5.10;3.35;;;34.30;46.60;;;;;;5054322;28;20514;-67
2022/04/17 10:07:46;;;;;;;5.93;3.92;;;34.30;48.00;;;;;;5054272;28;20050;-69
2022/04/17 10:10:12;;;;;;;3.90;3.20;;;34.70;47.80;;;;;;5054139;28;20067;-67
2022/04/17 10:12:43;;;;;;;3.90;3.30;;;34.30;47.60;;;;;;5054044;28;20029;-68
2022/04/17 10:15:10;;;;;;;4.40;3.35;;;33.90;47.90;;;;;;5053525;28;20025;-69
2022/04/17 10:17:43;;;;;;;4.30;3.55;;;34.30;47.60;;;;;;5053501;28;20017;-68
2022/04/17 10:20:11;;;;;;;4.85;3.88;;;34.30;47.70;;;;;;5054349;28;20021;-68
2022/04/17 10:22:41;;;;;;;6.25;3.28;;;33.50;47.40;;;;;;5053977;28;20074;-67
2022/04/17 10:25:08;;;;;;;2.83;2.50;;;34.00;47.80;;;;;;5053524;28;20052;-67
2022/04/17 10:27:55;;;;;;;4.38;2.90;;;34.30;45.30;;;;;;5053848;28;20044;-67
2022/04/17 10:30:25;;;;;;;2.92;2.45;;;34.40;45.40;;;;;;5053891;28;20033;-68
2022/04/17 10:33:28;;;;;;;3.30;2.42;;;35.10;44.60;;;;;;5053490;28;20025;-67
2022/04/17 10:36:21;;;;;;;2.92;2.55;;;34.20;44.90;;;;;;5053654;28;20127;-67
2022/04/17 10:38:59;;;;;;;3.70;2.33;;;34.00;45.30;;;;;;5053784;28;20025;-68
2022/04/17 10:41:25;;;;;;;7.28;3.05;;;34.20;45.20;;;;;;5053618;28;20025;-68
2022/04/17 10:43:50;;;;;;;1.95;1.83;;;35.70;43.30;;;;;;5053256;28;20108;-68
2022/04/17 10:46:18;;;;;;;1.65;1.55;;;35.60;42.10;;;;;;5053522;28;20083;-68
2022/04/17 10:48:48;;;;;;;2.65;2.10;;;36.10;42.60;;;;;;5053291;28;20029;-67
2022/04/17 10:51:15;;;;;;;2.72;1.70;;;36.90;41.80;;;;;;5053227;28;20428;-67
2022/04/17 10:54:03;;;;;;;2.33;1.90;;;36.60;42.70;;;;;;5053589;28;20021;-67
2022/04/17 10:56:30;;;;;;;2.03;1.83;;;36.70;41.50;;;;;;5053490;28;20029;-67
2022/04/17 10:58:59;;;;;;;3.33;1.77;;;36.80;41.80;;;;;;5053053;28;20025;-67
2022/04/17 11:01:43;;;;;;;2.10;1.90;;;36.30;40.50;;;;;;5053137;28;20025;-67
2022/04/17 11:04:37;;;;;;;3.67;2.35;;;35.70;41.00;;;;;;5053133;28;20021;-66
2022/04/17 11:07:06;;;;;;;3.25;2.40;;;35.30;41.30;;;;;;5053676;28;20047;-68
2022/04/17 11:09:42;;;;;;;4.40;3.03;;;35.30;41.40;;;;;;5053296;28;20549;-67
2022/04/17 11:12:11;;;;;;;3.05;2.15;;;34.90;40.60;;;;;;5053630;28;20115;-66
2022/04/17 11:14:39;;;;;;;3.33;1.80;;;35.20;40.80;;;;;;5053153;28;20029;-67
2022/04/17 11:17:11;;;;;;;1.90;1.70;;;34.90;40.90;;;;;;5053213;28;20131;-67
2022/04/17 11:19:39;;;;;;;1.63;1.52;;;34.60;40.50;;;;;;5053518;28;20480;-66
2022/04/17 11:22:06;;;;;;;2.67;2.00;;;34.50;41.30;;;;;;5052870;28;20364;-67
2022/04/17 11:24:54;;;;;;;4.32;3.15;;;34.50;40.60;;;;;;5052728;28;20040;-68
2022/04/17 11:27:38;;;;;;;2.13;1.77;;;34.60;39.30;;;;;;5054711;28;20095;-66
2022/04/17 11:30:05;;;;;;;4.03;2.58;;;34.40;38.70;;;;;;5057219;28;20113;-67
2022/04/17 11:32:31;;;;;;;4.60;2.72;;;34.00;39.30;;;;;;5056836;28;20025;-67
2022/04/17 11:35:03;;;;;;;1.65;1.55;;;34.00;39.40;;;;;;5056890;28;20024;-68
2022/04/17 11:37:30;;;;;;;2.63;1.88;;;33.90;39.40;;;;;;5056686;28;20017;-67
2022/04/17 11:39:57;;;;;;;5.95;3.55;;;34.10;40.40;;;;;;5057270;28;20024;-66
2022/04/17 11:42:27;;;;;;;4.07;2.58;;;33.70;40.50;;;;;;5056713;28;20035;-67
2022/04/17 11:44:53;;;;;;;2.78;1.98;;;31.50;41.40;;;;;;5056691;28;20372;-67
2022/04/17 11:47:20;;;;;;;1.98;1.77;;;29.50;44.30;;;;;;5056635;28;20024;-66
2022/04/17 11:49:48;;;;;;;4.68;3.38;;;28.50;45.60;;;;;;5056596;28;20029;-67
2022/04/17 11:52:16;;;;;;;3.00;2.00;;;27.90;45.40;;;;;;5056803;28;20021;-67
2022/04/17 11:54:43;;;;;;;1.95;1.77;;;26.80;45.80;;;;;;5056512;28;20098;-67
2022/04/17 11:57:10;;;;;;;2.78;1.98;;;26.50;46.80;;;;;;5056453;28;20095;-67
2022/04/17 11:59:45;;;;;;;3.90;1.73;;;26.40;47.50;;;;;;5056360;28;20067;-66
2022/04/17 12:02:14;;;;;;;2.17;1.80;;;26.60;46.90;;;;;;5056862;28;20071;-67
2022/04/17 12:04:41;;;;;;;1.88;1.65;;;26.20;47.10;;;;;;5056342;28;20105;-66
2022/04/17 12:07:08;;;;;;;2.90;1.80;;;26.10;48.30;;;;;;5056286;28;20029;-67
2022/04/17 12:09:34;;;;;;;2.13;1.67;;;25.90;46.20;;;;;;5056222;28;20447;-66
2022/04/17 12:12:00;;;;;;;6.15;2.22;;;25.90;46.50;;;;;;5056203;28;20064;-67
2022/04/17 12:14:32;;;;;;;2.08;1.70;;;25.50;47.40;;;;;;5056384;28;20051;-67
2022/04/17 12:16:58;;;;;;;2.35;1.77;;;25.40;47.40;;;;;;5056117;28;20025;-66
2022/04/17 12:19:25;;;;;;;3.65;1.70;;;25.70;47.20;;;;;;5055956;28;20116;-66
2022/04/17 12:21:51;;;;;;;3.97;2.58;;;25.70;47.00;;;;;;5056252;28;20013;-67
2022/04/17 12:24:17;;;;;;;2.47;1.70;;;25.50;47.50;;;;;;5055740;28;20037;-66
2022/04/17 12:26:43;;;;;;;2.08;1.45;;;25.50;46.10;;;;;;5056518;28;20075;-66
2022/04/17 12:29:09;;;;;;;2.58;1.60;;;25.30;46.00;;;;;;5056413;28;20029;-66
2022/04/17 12:31:35;;;;;;;3.15;2.25;;;25.20;46.40;;;;;;5055838;28;20593;-67
2022/04/17 12:34:22;;;;;;;3.25;2.63;;;24.60;48.00;;;;;;5055782;28;20079;-67
2022/04/17 12:36:48;;;;;;;3.22;1.80;;;25.00;49.00;;;;;;5056035;28;20025;-66
2022/04/17 12:39:13;;;;;;;2.58;2.00;;;25.10;48.00;;;;;;5054996;28;20111;-67
2022/04/17 12:41:46;;;;;;;1.85;1.73;;;25.10;48.20;;;;;;5055672;28;20100;-68
2022/04/17 12:44:12;;;;;;;1.80;1.70;;;24.30;49.20;;;;;;5055663;28;20051;-68
2022/04/17 12:46:42;;;;;;;3.05;1.88;;;24.50;50.20;;;;;;5055616;28;20103;-67
2022/04/17 12:49:08;;;;;;;2.75;1.90;;;25.50;49.30;;;;;;5055549;28;20387;-66
2022/04/17 12:51:35;;;;;;;1.85;1.63;;;25.90;49.30;;;;;;5055459;28;20143;-68
2022/04/17 12:54:02;;;;;;;4.18;1.80;;;25.90;49.00;;;;;;5055423;28;20017;-67
2022/04/17 12:56:28;;;;;;;2.03;1.67;;;26.00;48.70;;;;;;5055378;28;20025;-67
2022/04/17 12:58:55;;;;;;;2.70;1.60;;;25.70;48.50;;;;;;5055291;28;20399;-67